Time;durP1;ratioP1;P1;durP2;ratioP2;P2;SDS_P1;SDS_P2;PMS_P1;PMS_P2;Temp;Humidity;BMP_temperature;BMP_pressure;BME280_temperature;BME280_humidity;BME280_pressure;Samples;Min_cycle;Max_cycle;Signal;HPM_P1;HPM_P2
2021/05/13 00:02:18;;;;;;;15.33;6.83;;;;;;;;;;4342884;33;20198;-73
2021/05/13 00:04:43;;;;;;;19.47;8.27;;;;;;;;;;4344507;33;20233;-71
2021/05/13 00:07:09;;;;;;;14.73;7.10;;;;;;;;;;4331427;33;20248;-71
2021/05/13 00:09:34;;;;;;;13.52;6.20;;;;;;;;;;4331409;33;20244;-71
2021/05/13 00:12:02;;;;;;;13.90;6.03;;;;;;;;;;4344540;33;20188;-71
2021/05/13 00:14:27;;;;;;;16.07;6.87;;;;;;;;;;4344753;33;20136;-71
2021/05/13 00:16:53;;;;;;;20.67;8.77;;;;;;;;;;4330854;33;20485;-71
2021/05/13 00:19:18;;;;;;;18.83;8.00;;;;;;;;;;4343840;33;20214;-71
2021/05/13 00:21:44;;;;;;;22.50;9.07;;;;;;;;;;4330521;33;20159;-71
2021/05/13 00:24:10;;;;;;;16.33;8.27;;;;;;;;;;4331400;33;20251;-71
2021/05/13 00:26:40;;;;;;;13.93;7.17;;;;;;;;;;4344229;33;20301;-71
2021/05/13 00:29:06;;;;;;;17.77;6.97;;;;;;;;;;4345067;33;20124;-71
2021/05/13 00:31:32;;;;;;;16.40;6.53;;;;;;;;;;4344916;33;20136;-72
2021/05/13 00:34:00;;;;;;;13.37;6.40;;;;;;;;;;4345110;33;20422;-72
2021/05/13 00:36:25;;;;;;;17.97;6.63;;;;;;;;;;4344672;33;20205;-71
2021/05/13 00:38:51;;;;;;;14.20;6.70;;;;;;;;;;4343331;33;20533;-71
2021/05/13 00:41:16;;;;;;;17.50;6.85;;;;;;;;;;4343050;33;20163;-71
2021/05/13 00:43:41;;;;;;;14.03;6.47;;;;;;;;;;4343034;33;20402;-71
2021/05/13 00:46:06;;;;;;;13.10;6.77;;;;;;;;;;4343027;33;20232;-71
2021/05/13 00:48:35;;;;;;;20.20;7.17;;;;;;;;;;4345058;33;20259;-71
2021/05/13 00:51:00;;;;;;;18.33;9.03;;;;;;;;;;4344072;33;20270;-71
2021/05/13 00:53:25;;;;;;;20.10;8.50;;;;;;;;;;4344544;33;20131;-71
2021/05/13 00:55:51;;;;;;;22.80;8.43;;;;;;;;;;4328820;33;20159;-72
2021/05/13 00:58:16;;;;;;;17.80;8.30;;;;;;;;;;4341293;33;20243;-71
2021/05/13 01:03:13;;;;;;;19.80;8.63;;;;;;;;;;4344013;33;20144;-71
2021/05/13 01:05:38;;;;;;;18.23;9.10;;;;;;;;;;4328288;33;20198;-71
2021/05/13 01:08:04;;;;;;;18.27;8.57;;;;;;;;;;4315678;33;20159;-72
2021/05/13 01:10:29;;;;;;;14.97;7.67;;;;;;;;;;4322459;33;20488;-72
2021/05/13 01:12:58;;;;;;;17.40;9.17;;;;;;;;;;4327648;33;20248;-71
2021/05/13 01:15:36;;;;;;;17.48;9.20;;;;;;;;;;4327253;33;20139;-72
2021/05/13 01:18:18;;;;;;;15.03;8.43;;;;;;;;;;4315858;33;20205;-71
2021/05/13 01:20:44;;;;;;;14.93;8.10;;;;;;;;;;4325749;33;20160;-72
2021/05/13 01:23:13;;;;;;;14.97;9.43;;;;;;;;;;4329282;33;20254;-72
2021/05/13 01:26:04;;;;;;;20.20;9.67;;;;;;;;;;4330168;33;20199;-73
2021/05/13 01:28:29;;;;;;;17.93;10.90;;;;;;;;;;4341087;33;20348;-73
2021/05/13 01:30:55;;;;;;;27.37;11.17;;;;;;;;;;4344236;33;20598;-73
2021/05/13 01:33:21;;;;;;;19.33;9.87;;;;;;;;;;4341383;33;20136;-72
2021/05/13 01:35:47;;;;;;;14.87;9.57;;;;;;;;;;4329473;33;20155;-72
2021/05/13 01:38:13;;;;;;;23.23;10.30;;;;;;;;;;4343666;33;20136;-71
2021/05/13 01:40:39;;;;;;;21.55;10.10;;;;;;;;;;4328522;33;20155;-71
2021/05/13 01:43:04;;;;;;;15.63;9.33;;;;;;;;;;4341532;33;20251;-72
2021/05/13 01:45:30;;;;;;;20.43;10.40;;;;;;;;;;4328486;33;20178;-71
2021/05/13 01:48:01;;;;;;;15.83;9.80;;;;;;;;;;4328909;33;20596;-71
2021/05/13 01:50:27;;;;;;;18.80;10.03;;;;;;;;;;4343269;33;20170;-71
2021/05/13 01:52:53;;;;;;;18.43;9.67;;;;;;;;;;4343531;33;20135;-72
2021/05/13 01:55:18;;;;;;;16.73;10.37;;;;;;;;;;4326953;33;20167;-71
2021/05/13 01:57:43;;;;;;;23.93;10.87;;;;;;;;;;4339259;33;20136;-72
2021/05/13 02:00:08;;;;;;;18.73;11.00;;;;;;;;;;4343888;33;20258;-72
2021/05/13 02:02:34;;;;;;;22.50;11.40;;;;;;;;;;4343787;33;20266;-71
2021/05/13 02:04:59;;;;;;;18.97;10.03;;;;;;;;;;4329602;33;20163;-72
2021/05/13 02:07:24;;;;;;;21.70;12.73;;;;;;;;;;4342436;33;20533;-71
2021/05/13 02:09:49;;;;;;;21.60;13.53;;;;;;;;;;4328299;33;20178;-71
2021/05/13 02:12:15;;;;;;;24.03;13.57;;;;;;;;;;4343463;33;20563;-71
2021/05/13 02:14:40;;;;;;;22.73;12.80;;;;;;;;;;4328685;33;20184;-71
2021/05/13 02:17:05;;;;;;;22.07;12.70;;;;;;;;;;4342964;33;20565;-71
2021/05/13 02:19:30;;;;;;;22.20;13.90;;;;;;;;;;4341818;33;20232;-70
2021/05/13 02:21:55;;;;;;;18.63;11.80;;;;;;;;;;4341728;33;20266;-71
2021/05/13 02:24:20;;;;;;;28.33;14.52;;;;;;;;;;4328101;33;20459;-71
2021/05/13 02:26:46;;;;;;;19.58;12.37;;;;;;;;;;4329913;33;20343;-71
2021/05/13 02:29:11;;;;;;;22.13;13.00;;;;;;;;;;4342125;33;20128;-71
2021/05/13 02:31:36;;;;;;;23.83;12.80;;;;;;;;;;4343503;33;20158;-71
2021/05/13 02:34:01;;;;;;;27.93;13.63;;;;;;;;;;4342341;33;20228;-72
2021/05/13 02:36:26;;;;;;;22.70;12.87;;;;;;;;;;4329853;33;20238;-71
2021/05/13 02:38:52;;;;;;;21.10;13.33;;;;;;;;;;4341788;33;20158;-72
2021/05/13 02:41:17;;;;;;;23.13;13.27;;;;;;;;;;4340581;33;20247;-71
2021/05/13 02:43:42;;;;;;;22.77;15.30;;;;;;;;;;4342391;33;20166;-72
2021/05/13 02:46:07;;;;;;;27.03;15.97;;;;;;;;;;4343133;33;20186;-72
2021/05/13 02:48:32;;;;;;;25.17;14.60;;;;;;;;;;4329747;33;20681;-72
2021/05/13 02:50:57;;;;;;;25.43;14.37;;;;;;;;;;4329668;33;20159;-71
2021/05/13 02:53:23;;;;;;;31.47;17.40;;;;;;;;;;4342024;33;20185;-72
2021/05/13 02:55:48;;;;;;;21.10;14.27;;;;;;;;;;4340173;33;20626;-71
2021/05/13 02:58:13;;;;;;;23.10;15.80;;;;;;;;;;4343479;33;20135;-71
2021/05/13 03:00:51;;;;;;;22.40;14.43;;;;;;;;;;4343772;33;20191;-71
2021/05/13 03:03:16;;;;;;;32.43;17.07;;;;;;;;;;4328610;33;20563;-71
2021/05/13 03:05:42;;;;;;;24.43;14.80;;;;;;;;;;4328696;33;20155;-71
2021/05/13 03:08:09;;;;;;;25.07;15.03;;;;;;;;;;4328816;33;20565;-72
2021/05/13 03:10:43;;;;;;;28.13;14.87;;;;;;;;;;4327853;33;20225;-71
2021/05/13 03:13:10;;;;;;;30.23;17.57;;;;;;;;;;4343018;33;20145;-71
2021/05/13 03:15:36;;;;;;;38.40;19.53;;;;;;;;;;4329759;33;20163;-71
2021/05/13 03:18:01;;;;;;;35.53;20.83;;;;;;;;;;4342918;33;20247;-72
2021/05/13 03:20:34;;;;;;;27.43;16.80;;;;;;;;;;4342764;33;20209;-71
2021/05/13 03:23:00;;;;;;;34.53;19.20;;;;;;;;;;4341684;33;20177;-71
2021/05/13 03:25:29;;;;;;;30.37;17.37;;;;;;;;;;4326981;33;20629;-72
2021/05/13 03:28:06;;;;;;;26.83;17.53;;;;;;;;;;4328248;33;20182;-72
2021/05/13 03:30:31;;;;;;;34.23;19.07;;;;;;;;;;4328482;33;20517;-72
2021/05/13 03:32:57;;;;;;;32.20;20.20;;;;;;;;;;4326762;33;20155;-73
2021/05/13 03:35:22;;;;;;;34.73;22.17;;;;;;;;;;4327445;33;20199;-72
2021/05/13 03:37:47;;;;;;;30.70;19.43;;;;;;;;;;4329522;33;20321;-72
2021/05/13 03:40:12;;;;;;;32.27;20.67;;;;;;;;;;4322933;33;20163;-72
2021/05/13 03:42:37;;;;;;;30.80;19.40;;;;;;;;;;4328320;33;20256;-72
2021/05/13 03:45:03;;;;;;;30.60;21.03;;;;;;;;;;4330171;33;20158;-72
2021/05/13 03:47:29;;;;;;;40.30;24.57;;;;;;;;;;4316749;33;20159;-71
2021/05/13 03:49:54;;;;;;;30.63;20.27;;;;;;;;;;4317951;33;20220;-71
2021/05/13 03:52:19;;;;;;;30.07;19.93;;;;;;;;;;4328126;33;20469;-72
2021/05/13 03:54:44;;;;;;;36.53;21.50;;;;;;;;;;4316800;33;20285;-71
2021/05/13 03:57:10;;;;;;;40.50;23.97;;;;;;;;;;4330059;33;20128;-72
2021/05/13 03:59:40;;;;;;;34.53;22.23;;;;;;;;;;4328736;33;20171;-72
2021/05/13 04:02:29;;;;;;;32.67;21.33;;;;;;;;;;4331128;33;20174;-71
2021/05/13 04:04:53;;;;;;;39.57;23.87;;;;;;;;;;4328693;33;20209;-71
2021/05/13 04:07:18;;;;;;;37.33;21.73;;;;;;;;;;4316843;33;20509;-70
2021/05/13 04:09:44;;;;;;;33.50;21.03;;;;;;;;;;4321895;33;20252;-71
2021/05/13 04:12:09;;;;;;;35.97;21.40;;;;;;;;;;4331994;33;20159;-71
2021/05/13 04:14:34;;;;;;;35.60;21.53;;;;;;;;;;4331143;33;20187;-71
2021/05/13 04:17:01;;;;;;;35.20;20.77;;;;;;;;;;4343627;33;20127;-71
2021/05/13 04:19:27;;;;;;;27.23;18.63;;;;;;;;;;4331555;33;20194;-70
2021/05/13 04:21:52;;;;;;;37.27;20.97;;;;;;;;;;4344475;33;20530;-71
2021/05/13 04:24:20;;;;;;;29.13;18.40;;;;;;;;;;4341800;33;20214;-71
2021/05/13 04:26:46;;;;;;;26.10;18.10;;;;;;;;;;4344886;33;20633;-71
2021/05/13 04:29:11;;;;;;;32.00;20.40;;;;;;;;;;4331156;33;20163;-70
2021/05/13 04:31:36;;;;;;;28.87;17.57;;;;;;;;;;4343644;33;20160;-71
2021/05/13 04:34:04;;;;;;;28.50;18.87;;;;;;;;;;4344339;33;20128;-71
2021/05/13 04:36:30;;;;;;;24.87;16.93;;;;;;;;;;4329971;33;20152;-71
2021/05/13 04:38:55;;;;;;;32.40;19.20;;;;;;;;;;4330293;33;20178;-70
2021/05/13 04:41:21;;;;;;;31.83;20.37;;;;;;;;;;4344134;33;20136;-70
2021/05/13 04:43:46;;;;;;;26.67;17.17;;;;;;;;;;4344685;33;20205;-71
2021/05/13 04:46:11;;;;;;;31.43;18.17;;;;;;;;;;4331444;33;20218;-71
2021/05/13 04:51:17;;;;;;;24.37;16.60;;;;;;;;;;4345086;33;20157;-71
2021/05/13 04:53:43;;;;;;;26.90;16.40;;;;;;;;;;4344094;33;20132;-71
2021/05/13 04:56:08;;;;;;;29.83;17.83;;;;;;;;;;4345171;33;20418;-71
2021/05/13 04:58:33;;;;;;;26.45;17.42;;;;;;;;;;4344745;33;20147;-71
2021/05/13 05:00:58;;;;;;;27.58;16.87;;;;;;;;;;4331495;33;20323;-71
2021/05/13 05:03:24;;;;;;;25.60;16.63;;;;;;;;;;4344945;33;20572;-71
2021/05/13 05:05:49;;;;;;;26.73;16.20;;;;;;;;;;4344538;33;20155;-72
2021/05/13 05:08:14;;;;;;;29.60;17.00;;;;;;;;;;4344663;33;20267;-71
2021/05/13 05:10:39;;;;;;;23.17;14.23;;;;;;;;;;4330368;33;20272;-71
2021/05/13 05:13:04;;;;;;;25.17;15.03;;;;;;;;;;4328606;33;20540;-71
2021/05/13 05:15:29;;;;;;;30.52;16.55;;;;;;;;;;4328829;33;20166;-72
2021/05/13 05:17:55;;;;;;;24.40;15.13;;;;;;;;;;4316052;33;20594;-71
2021/05/13 05:20:20;;;;;;;24.90;14.87;;;;;;;;;;4314354;33;20195;-70
2021/05/13 05:22:45;;;;;;;24.25;14.68;;;;;;;;;;4328329;33;20329;-71
2021/05/13 05:25:10;;;;;;;21.97;13.63;;;;;;;;;;4325307;33;20402;-71
2021/05/13 05:27:35;;;;;;;21.65;13.68;;;;;;;;;;4326999;33;20194;-71
2021/05/13 05:30:01;;;;;;;24.15;14.02;;;;;;;;;;4330235;33;20213;-71
2021/05/13 05:32:26;;;;;;;18.90;12.10;;;;;;;;;;4344203;33;20552;-71
2021/05/13 05:34:51;;;;;;;23.98;13.48;;;;;;;;;;4344150;33;20252;-72
2021/05/13 05:37:16;;;;;;;24.40;14.73;;;;;;;;;;4343905;33;20250;-72
2021/05/13 05:39:42;;;;;;;23.20;13.62;;;;;;;;;;4330511;33;20588;-71
2021/05/13 05:42:07;;;;;;;21.67;15.07;;;;;;;;;;4329253;33;20191;-70
2021/05/13 05:44:32;;;;;;;25.20;13.85;;;;;;;;;;4344426;33;20148;-73
2021/05/13 05:46:57;;;;;;;19.17;13.83;;;;;;;;;;4344479;33;20186;-73
2021/05/13 05:49:23;;;;;;;23.77;15.15;;;;;;;;;;4342378;33;20278;-71
2021/05/13 05:51:48;;;;;;;21.60;14.40;;;;;;;;;;4343157;33;20215;-72
2021/05/13 05:54:13;;;;;;;23.67;14.73;;;;;;;;;;4327434;33;20167;-72
2021/05/13 05:56:38;;;;;;;22.27;14.38;;;;;;;;;;4334807;33;20147;-72
2021/05/13 05:59:05;;;;;;;19.03;14.23;;;;;;;;;;4328731;33;20671;-71
2021/05/13 06:01:30;;;;;;;23.43;14.50;;;;;;;;;;4327034;33;20206;-72
2021/05/13 06:03:56;;;;;;;20.25;13.98;;;;;;;;;;4329291;33;20596;-71
2021/05/13 06:06:21;;;;;;;21.67;14.63;;;;;;;;;;4343804;33;20142;-72
2021/05/13 06:08:47;;;;;;;23.05;13.68;;;;;;;;;;4331886;33;20163;-72
2021/05/13 06:11:12;;;;;;;18.83;12.95;;;;;;;;;;4343767;33;20144;-72
2021/05/13 06:13:37;;;;;;;21.40;12.95;;;;;;;;;;4342840;33;20160;-71
2021/05/13 06:16:02;;;;;;;21.25;13.32;;;;;;;;;;4342712;33;20545;-72
2021/05/13 06:18:27;;;;;;;20.30;13.52;;;;;;;;;;4342975;33;20281;-71
2021/05/13 06:20:53;;;;;;;20.08;13.15;;;;;;;;;;4343680;33;20136;-72
2021/05/13 06:23:18;;;;;;;19.80;13.23;;;;;;;;;;4329150;33;20660;-71
2021/05/13 06:25:43;;;;;;;20.92;13.93;;;;;;;;;;4327783;33;20226;-71
2021/05/13 06:28:09;;;;;;;18.35;11.95;;;;;;;;;;4328009;33;20151;-71
2021/05/13 06:30:34;;;;;;;17.35;12.73;;;;;;;;;;4314911;33;20394;-71
2021/05/13 06:32:59;;;;;;;19.30;12.98;;;;;;;;;;4342646;33;20171;-72
2021/05/13 06:35:24;;;;;;;16.92;12.15;;;;;;;;;;4342516;33;20633;-72
2021/05/13 06:37:50;;;;;;;20.37;12.90;;;;;;;;;;4342272;33;20367;-73
2021/05/13 06:40:15;;;;;;;18.02;12.15;;;;;;;;;;4342137;33;20175;-73
2021/05/13 06:42:43;;;;;;;19.37;13.40;;;;;;;;;;4342110;33;20166;-73
2021/05/13 06:45:09;;;;;;;21.05;13.32;;;;;;;;;;4330779;33;20167;-73
2021/05/13 06:47:35;;;;;;;20.12;12.07;;;;;;;;;;4342387;33;20523;-72
2021/05/13 06:50:00;;;;;;;16.87;11.20;;;;;;;;;;4343563;33;20155;-72
2021/05/13 06:52:25;;;;;;;18.85;11.98;;;;;;;;;;4329296;33;20302;-72
2021/05/13 06:54:50;;;;;;;20.50;12.13;;;;;;;;;;4329000;33;20569;-71
2021/05/13 06:57:16;;;;;;;16.15;11.68;;;;;;;;;;4343165;33;20152;-72
2021/05/13 06:59:42;;;;;;;16.60;11.27;;;;;;;;;;4343694;33;20138;-71
2021/05/13 07:02:08;;;;;;;16.05;11.52;;;;;;;;;;4330518;33;20221;-72
2021/05/13 07:04:34;;;;;;;19.55;11.57;;;;;;;;;;4343526;33;20166;-72
2021/05/13 07:06:59;;;;;;;19.42;12.13;;;;;;;;;;4329314;33;20183;-72
2021/05/13 07:09:24;;;;;;;19.98;12.37;;;;;;;;;;4343559;33;20222;-72
2021/05/13 07:11:49;;;;;;;16.67;11.75;;;;;;;;;;4329204;33;20222;-72
2021/05/13 07:14:15;;;;;;;17.77;11.43;;;;;;;;;;4345289;33;20166;-73
2021/05/13 07:16:40;;;;;;;17.70;11.85;;;;;;;;;;4346781;33;20293;-72
2021/05/13 07:19:05;;;;;;;17.55;11.32;;;;;;;;;;4346647;33;20140;-73
2021/05/13 07:21:31;;;;;;;21.37;11.93;;;;;;;;;;4343851;33;20209;-72
2021/05/13 07:23:57;;;;;;;20.00;12.48;;;;;;;;;;4343991;33;20151;-71
2021/05/13 07:26:22;;;;;;;17.40;12.63;;;;;;;;;;4344084;33;20165;-72
2021/05/13 07:28:47;;;;;;;20.83;13.05;;;;;;;;;;4329595;33;20298;-71
2021/05/13 07:31:13;;;;;;;18.58;13.00;;;;;;;;;;4331133;33;20170;-72
2021/05/13 07:33:38;;;;;;;18.70;11.77;;;;;;;;;;4324132;33;20239;-71
2021/05/13 07:36:04;;;;;;;20.67;13.05;;;;;;;;;;4330447;33;20176;-71
2021/05/13 07:38:29;;;;;;;20.55;14.13;;;;;;;;;;4345904;33;20521;-72
2021/05/13 07:40:54;;;;;;;20.30;13.05;;;;;;;;;;4345604;33;20624;-72
2021/05/13 07:43:21;;;;;;;19.60;13.90;;;;;;;;;;4344386;33;20139;-72
2021/05/13 07:45:46;;;;;;;22.80;15.52;;;;;;;;;;4331584;33;20226;-71
2021/05/13 07:48:12;;;;;;;19.17;14.18;;;;;;;;;;4330549;33;20226;-71
2021/05/13 07:50:37;;;;;;;21.05;14.23;;;;;;;;;;4329936;33;20179;-72
2021/05/13 07:53:03;;;;;;;21.55;15.05;;;;;;;;;;4344877;33;20163;-72
2021/05/13 07:55:28;;;;;;;23.80;15.13;;;;;;;;;;4329451;33;20210;-72
2021/05/13 07:57:53;;;;;;;21.00;14.80;;;;;;;;;;4344024;33;20178;-71
2021/05/13 08:00:19;;;;;;;23.52;15.02;;;;;;;;;;4329583;33;20171;-71
2021/05/13 08:02:44;;;;;;;25.73;14.87;;;;;;;;;;4329341;33;20198;-71
2021/05/13 08:05:10;;;;;;;20.05;14.32;;;;;;;;;;4342608;33;20275;-71
2021/05/13 08:07:35;;;;;;;24.27;14.02;;;;;;;;;;4327271;33;20541;-71
2021/05/13 08:10:00;;;;;;;20.60;14.38;;;;;;;;;;4329142;33;20483;-72
2021/05/13 08:12:26;;;;;;;19.15;14.02;;;;;;;;;;4329525;33;20266;-72
2021/05/13 08:14:51;;;;;;;17.17;13.80;;;;;;;;;;4327201;33;20659;-73
2021/05/13 08:17:17;;;;;;;20.27;13.25;;;;;;;;;;4343845;33;20147;-72
2021/05/13 08:19:42;;;;;;;20.23;13.90;;;;;;;;;;4343078;33;20515;-72
2021/05/13 08:22:07;;;;;;;20.02;14.25;;;;;;;;;;4344664;33;20155;-71
2021/05/13 08:24:32;;;;;;;21.87;14.45;;;;;;;;;;4344065;33;20226;-72
2021/05/13 08:27:01;;;;;;;19.45;14.50;;;;;;;;;;4342949;33;20149;-72
2021/05/13 08:29:26;;;;;;;18.25;13.88;;;;;;;;;;4342846;32;20151;-73
2021/05/13 08:31:51;;;;;;;19.48;13.57;;;;;;;;;;4344158;33;20501;-72
2021/05/13 08:34:16;;;;;;;17.05;12.02;;;;;;;;;;4343134;33;20147;-73
2021/05/13 08:36:41;;;;;;;17.00;12.65;;;;;;;;;;4345185;33;20178;-73
2021/05/13 08:39:07;;;;;;;18.70;13.70;;;;;;;;;;4330364;33;20166;-73
2021/05/13 08:41:32;;;;;;;18.02;13.02;;;;;;;;;;4344536;33;20262;-76
2021/05/13 08:43:57;;;;;;;19.73;14.00;;;;;;;;;;4344747;33;20231;-73
2021/05/13 08:46:23;;;;;;;19.75;14.87;;;;;;;;;;4344650;33;20544;-73
2021/05/13 08:48:49;;;;;;;21.80;13.53;;;;;;;;;;4329432;33;20194;-73
2021/05/13 08:51:15;;;;;;;17.35;13.18;;;;;;;;;;4344120;33;20240;-73
2021/05/13 08:54:06;;;;;;;18.98;13.60;;;;;;;;;;4343718;33;20195;-73
2021/05/13 08:56:32;;;;;;;18.80;12.90;;;;;;;;;;4341778;33;20535;-73
2021/05/13 08:59:04;;;;;;;22.25;14.00;;;;;;;;;;4345229;33;20158;-72
2021/05/13 09:01:30;;;;;;;20.00;13.20;;;;;;;;;;4345721;33;20583;-73
2021/05/13 09:03:56;;;;;;;18.60;12.85;;;;;;;;;;4346140;33;20176;-72
2021/05/13 09:06:41;;;;;;;17.15;13.05;;;;;;;;;;4346281;33;20194;-73
2021/05/13 09:09:14;;;;;;;17.00;13.00;;;;;;;;;;4345907;33;20127;-73
2021/05/13 09:11:47;;;;;;;17.58;13.23;;;;;;;;;;4330514;33;20174;-73
2021/05/13 09:14:12;;;;;;;16.25;12.07;;;;;;;;;;4333067;33;20194;-75
2021/05/13 09:16:37;;;;;;;18.73;12.50;;;;;;;;;;4344421;33;20215;-73
2021/05/13 09:19:19;;;;;;;17.48;11.75;;;;;;;;;;4344096;32;20203;-73
2021/05/13 09:21:56;;;;;;;17.65;12.02;;;;;;;;;;4330581;33;20179;-72
2021/05/13 09:24:42;;;;;;;15.82;10.63;;;;;;;;;;4345094;33;20165;-74
2021/05/13 09:27:18;;;;;;;14.70;10.38;;;;;;;;;;4332979;33;20239;-73
2021/05/13 09:29:43;;;;;;;16.55;9.38;;;;;;;;;;4344022;33;20211;-73
2021/05/13 09:32:15;;;;;;;18.02;10.27;;;;;;;;;;4342844;33;20552;-74
2021/05/13 09:34:41;;;;;;;14.73;10.73;;;;;;;;;;4342636;33;20143;-73
2021/05/13 09:37:06;;;;;;;17.35;11.80;;;;;;;;;;4343264;33;20584;-72
2021/05/13 09:39:32;;;;;;;15.75;10.48;;;;;;;;;;4344048;33;20147;-75
2021/05/13 09:41:58;;;;;;;14.52;10.85;;;;;;;;;;4344699;33;20548;-74
2021/05/13 09:44:37;;;;;;;16.02;11.23;;;;;;;;;;4328140;33;20175;-74
2021/05/13 09:47:15;;;;;;;13.88;10.15;;;;;;;;;;4327983;33;20191;-72
2021/05/13 09:49:56;;;;;;;13.45;10.35;;;;;;;;;;4327318;33;20218;-73
2021/05/13 09:52:36;;;;;;;12.25;9.05;;;;;;;;;;4329261;33;20477;-72
2021/05/13 09:55:28;;;;;;;13.45;7.30;;;;;;;;;;4335245;33;20583;-73
2021/05/13 09:57:57;;;;;;;13.57;7.43;;;;;;;;;;4341081;33;20270;-73
2021/05/13 10:00:41;;;;;;;10.38;7.07;;;;;;;;;;4329584;33;20226;-74
2021/05/13 10:03:16;;;;;;;12.75;7.55;;;;;;;;;;4343717;33;20298;-73
2021/05/13 10:05:43;;;;;;;9.45;6.15;;;;;;;;;;4330019;33;20298;-73
2021/05/13 10:08:09;;;;;;;11.77;6.32;;;;;;;;;;4342782;33;20147;-73
2021/05/13 10:10:35;;;;;;;11.82;7.18;;;;;;;;;;4344631;33;20539;-73
2021/05/13 10:13:01;;;;;;;12.88;6.18;;;;;;;;;;4341517;33;20293;-73
2021/05/13 10:15:26;;;;;;;10.32;5.78;;;;;;;;;;4328459;33;20187;-73
2021/05/13 10:17:55;;;;;;;9.57;5.70;;;;;;;;;;4345154;33;20182;-73
2021/05/13 10:20:21;;;;;;;8.38;6.95;;;;;;;;;;4343109;33;20289;-73
2021/05/13 10:22:46;;;;;;;11.43;6.45;;;;;;;;;;4330646;33;20534;-73
2021/05/13 10:25:22;;;;;;;10.73;6.32;;;;;;;;;;4344022;33;20158;-73
2021/05/13 10:27:51;;;;;;;9.90;6.60;;;;;;;;;;4344111;33;20163;-72
2021/05/13 10:30:20;;;;;;;13.65;6.60;;;;;;;;;;4344862;33;20155;-73
2021/05/13 10:32:57;;;;;;;11.73;6.32;;;;;;;;;;4345228;33;20218;-73
2021/05/13 10:35:23;;;;;;;9.32;6.10;;;;;;;;;;4343771;33;20201;-73
2021/05/13 10:37:56;;;;;;;8.77;5.60;;;;;;;;;;4345452;33;20529;-73
2021/05/13 10:43:04;;;;;;;9.88;6.75;;;;;;;;;;4344732;33;20178;-73
2021/05/13 10:45:29;;;;;;;8.40;6.25;;;;;;;;;;4344274;33;20136;-73
2021/05/13 10:48:17;;;;;;;9.13;5.87;;;;;;;;;;4344961;33;20191;-74
2021/05/13 10:51:02;;;;;;;13.82;6.30;;;;;;;;;;4332908;33;20506;-73
2021/05/13 10:53:34;;;;;;;11.30;6.37;;;;;;;;;;4332909;33;20144;-73
2021/05/13 10:56:24;;;;;;;9.80;5.30;;;;;;;;;;4331770;33;20159;-74
2021/05/13 10:59:01;;;;;;;9.30;5.93;;;;;;;;;;4331915;33;20198;-74
2021/05/13 11:01:32;;;;;;;8.65;5.55;;;;;;;;;;4332453;33;20135;-74
2021/05/13 11:04:16;;;;;;;7.37;4.87;;;;;;;;;;4333139;33;20217;-74
2021/05/13 11:06:44;;;;;;;9.82;5.47;;;;;;;;;;4331995;33;20163;-74
2021/05/13 11:09:10;;;;;;;13.13;6.07;;;;;;;;;;4332151;33;20182;-74
2021/05/13 11:11:54;;;;;;;9.98;5.07;;;;;;;;;;4333451;33;20175;-73
2021/05/13 11:14:24;;;;;;;6.30;4.70;;;;;;;;;;4334464;33;20196;-74
2021/05/13 11:16:54;;;;;;;8.68;5.37;;;;;;;;;;4333780;33;20202;-74
2021/05/13 11:19:24;;;;;;;7.97;4.70;;;;;;;;;;4340974;33;20224;-73
2021/05/13 11:21:58;;;;;;;8.23;5.07;;;;;;;;;;4346446;33;20182;-74
2021/05/13 11:24:23;;;;;;;8.68;5.20;;;;;;;;;;4333338;33;20186;-72
2021/05/13 11:26:55;;;;;;;11.05;5.03;;;;;;;;;;4346170;33;20279;-74
2021/05/13 11:29:20;;;;;;;10.18;4.40;;;;;;;;;;4347900;33;20205;-74
2021/05/13 11:31:48;;;;;;;5.70;3.80;;;;;;;;;;4346815;33;20155;-74
2021/05/13 11:34:15;;;;;;;9.00;4.20;;;;;;;;;;4347752;33;20243;-74
2021/05/13 11:36:40;;;;;;;6.10;4.10;;;;;;;;;;4346250;33;20143;-73
2021/05/13 11:39:10;;;;;;;8.70;3.95;;;;;;;;;;4347688;33;20191;-73
2021/05/13 11:41:36;;;;;;;9.43;3.92;;;;;;;;;;4333476;33;20337;-73
2021/05/13 11:44:02;;;;;;;8.98;3.78;;;;;;;;;;4347170;33;20166;-74
2021/05/13 11:46:27;;;;;;;6.87;3.75;;;;;;;;;;4333151;33;20226;-74
2021/05/13 11:48:53;;;;;;;7.65;4.20;;;;;;;;;;4347226;33;20147;-74
2021/05/13 11:51:25;;;;;;;5.37;3.60;;;;;;;;;;4348343;33;20140;-74
2021/05/13 11:53:55;;;;;;;6.82;3.83;;;;;;;;;;4346157;33;20560;-74
2021/05/13 11:56:21;;;;;;;7.68;3.85;;;;;;;;;;4346003;33;20164;-74
2021/05/13 11:58:47;;;;;;;6.32;3.53;;;;;;;;;;4345182;33;20472;-74
2021/05/13 12:01:13;;;;;;;5.43;3.00;;;;;;;;;;4346359;33;20143;-74
2021/05/13 12:03:38;;;;;;;8.15;3.35;;;;;;;;;;4331882;33;20174;-73
2021/05/13 12:06:04;;;;;;;5.93;3.00;;;;;;;;;;4333477;33;20548;-74
2021/05/13 12:08:29;;;;;;;7.93;3.60;;;;;;;;;;4346046;33;20595;-74
2021/05/13 12:10:54;;;;;;;6.17;3.20;;;;;;;;;;4347346;33;20170;-76
2021/05/13 12:13:19;;;;;;;5.90;3.37;;;;;;;;;;4346327;33;20275;-74
2021/05/13 12:15:44;;;;;;;7.57;3.33;;;;;;;;;;4345336;33;20591;-74
2021/05/13 12:18:10;;;;;;;6.23;3.03;;;;;;;;;;4347005;33;20206;-75
2021/05/13 12:20:41;;;;;;;6.18;3.35;;;;;;;;;;4345642;33;20727;-76
2021/05/13 12:23:06;;;;;;;6.28;3.40;;;;;;;;;;4346558;33;20183;-75
2021/05/13 12:25:32;;;;;;;6.40;3.83;;;;;;;;;;4345589;33;20197;-75
2021/05/13 12:27:59;;;;;;;8.32;4.18;;;;;;;;;;4345745;33;20552;-75
2021/05/13 12:30:25;;;;;;;6.05;4.15;;;;;;;;;;4347292;33;20139;-74
2021/05/13 12:32:50;;;;;;;8.77;4.05;;;;;;;;;;4345599;33;20268;-75
2021/05/13 12:35:21;;;;;;;4.95;3.45;;;;;;;;;;4347469;33;20179;-75
2021/05/13 12:37:46;;;;;;;6.95;3.80;;;;;;;;;;4333044;33;20234;-75
2021/05/13 12:40:14;;;;;;;6.43;3.57;;;;;;;;;;4345318;33;20132;-74
2021/05/13 12:42:39;;;;;;;6.80;3.45;;;;;;;;;;4332183;33;20259;-75
2021/05/13 12:45:13;;;;;;;10.83;4.17;;;;;;;;;;4346874;33;20139;-73
2021/05/13 12:47:39;;;;;;;5.80;3.97;;;;;;;;;;4332252;33;20287;-74
2021/05/13 12:50:04;;;;;;;8.10;3.72;;;;;;;;;;4318616;33;20175;-74
2021/05/13 12:52:30;;;;;;;8.48;3.58;;;;;;;;;;4331859;33;20144;-74
2021/05/13 12:55:10;;;;;;;7.15;4.00;;;;;;;;;;4331324;33;20206;-74
2021/05/13 12:57:40;;;;;;;6.20;3.03;;;;;;;;;;4331495;33;20663;-74
2021/05/13 13:00:05;;;;;;;7.12;3.33;;;;;;;;;;4343506;33;20537;-74
2021/05/13 13:02:31;;;;;;;7.93;4.03;;;;;;;;;;4333581;33;20198;-74
2021/05/13 13:04:57;;;;;;;7.20;3.22;;;;;;;;;;4347075;33;20202;-73
2021/05/13 13:07:34;;;;;;;7.72;3.12;;;;;;;;;;4345745;33;20140;-72
2021/05/13 13:10:18;;;;;;;7.03;3.85;;;;;;;;;;4346502;33;20189;-73
2021/05/13 13:12:44;;;;;;;7.18;3.50;;;;;;;;;;4346562;33;20163;-73
2021/05/13 13:15:11;;;;;;;7.93;4.60;;;;;;;;;;4333535;33;20631;-73
2021/05/13 13:17:38;;;;;;;9.27;4.15;;;;;;;;;;4333835;33;20225;-74
2021/05/13 13:20:10;;;;;;;7.47;3.67;;;;;;;;;;4346391;33;20622;-75
2021/05/13 13:22:36;;;;;;;7.15;3.80;;;;;;;;;;4331578;33;20205;-74
2021/05/13 13:25:11;;;;;;;7.97;3.67;;;;;;;;;;4332591;33;20622;-73
2021/05/13 13:27:38;;;;;;;8.63;3.62;;;;;;;;;;4346499;33;20462;-74
2021/05/13 13:30:05;;;;;;;10.10;3.60;;;;;;;;;;4332534;33;20167;-73
2021/05/13 13:32:30;;;;;;;7.15;3.67;;;;;;;;;;4345152;33;20163;-73
2021/05/13 13:35:01;;;;;;;6.72;3.60;;;;;;;;;;4346807;33;20186;-74
2021/05/13 13:37:27;;;;;;;6.20;3.47;;;;;;;;;;4331797;33;20205;-75
2021/05/13 13:39:52;;;;;;;6.80;3.10;;;;;;;;;;4331271;33;20581;-73
2021/05/13 13:42:18;;;;;;;7.10;3.37;;;;;;;;;;4345801;33;20267;-74
2021/05/13 13:44:43;;;;;;;6.78;3.05;;;;;;;;;;4346774;33;20144;-74
2021/05/13 13:47:09;;;;;;;6.93;3.35;;;;;;;;;;4345738;33;20181;-74
2021/05/13 13:49:34;;;;;;;6.10;3.67;;;;;;;;;;4344324;33;20186;-74
2021/05/13 13:51:59;;;;;;;5.77;3.40;;;;;;;;;;4345664;33;20140;-75
2021/05/13 13:54:24;;;;;;;8.13;3.77;;;;;;;;;;4346295;33;20584;-74
2021/05/13 13:56:50;;;;;;;8.10;3.35;;;;;;;;;;4346058;33;20247;-74
2021/05/13 13:59:15;;;;;;;6.87;3.60;;;;;;;;;;4331527;33;20268;-74
2021/05/13 14:01:40;;;;;;;7.07;3.33;;;;;;;;;;4344690;33;20513;-74
2021/05/13 14:04:05;;;;;;;6.90;3.53;;;;;;;;;;4344324;33;20183;-73
2021/05/13 14:06:31;;;;;;;6.95;3.00;;;;;;;;;;4343610;33;20198;-75
2021/05/13 14:08:56;;;;;;;6.68;3.65;;;;;;;;;;4344412;33;20176;-74
2021/05/13 14:11:22;;;;;;;6.78;3.40;;;;;;;;;;4345814;33;20450;-74
2021/05/13 14:13:47;;;;;;;6.53;3.45;;;;;;;;;;4346475;33;20267;-74
2021/05/13 14:16:15;;;;;;;7.75;3.83;;;;;;;;;;4345696;33;20202;-75
2021/05/13 14:18:40;;;;;;;6.62;3.50;;;;;;;;;;4345172;33;20139;-74
2021/05/13 14:21:06;;;;;;;6.78;3.83;;;;;;;;;;4345326;33;20247;-73
2021/05/13 14:23:31;;;;;;;7.68;3.75;;;;;;;;;;4344955;33;20564;-73
2021/05/13 14:25:56;;;;;;;12.27;5.80;;;;;;;;;;4344650;33;20647;-74
2021/05/13 14:28:21;;;;;;;6.32;3.65;;;;;;;;;;4343958;33;20583;-74
2021/05/13 14:30:47;;;;;;;7.47;3.75;;;;;;;;;;4344925;33;20426;-75
2021/05/13 14:33:12;;;;;;;8.27;3.78;;;;;;;;;;4345168;33;20155;-75
2021/05/13 14:35:37;;;;;;;9.30;3.97;;;;;;;;;;4343443;33;20163;-73